East Swanzey, New Hampshire
Current Conditions -  °F | °C
As of 3:38 AM on Thursday 27 Nov 2014 (Local Time) from KAFN Reporting Station
Light Snow Light Snow  
Wind Chill: 30°   Ceiling: NA
Heat Index: 30°   Visibility: 3mi
Dew Point: 28°   Wind: 3mph
Humidity: 92%   Direction: NA
Pressure: 29.77"   Gusts: NA
Location:  42.8618°N, 72.2452°W
Report Text: KAFN 270838Z AUTO VRB03KT 3SM -SN BR M01/M02 A2977 RMK AO2 P0001 T10111022 $
Loading
Personal Weather Stations






























Interactive Weather Map New forecast layout! Learn more

10-Day Weather Forecast

Advertisements
Track Severe Weather on mobile